createdAt,value
2019-03-08T00:04:40.346Z,1.8
2019-03-08T00:10:03.457Z,2.1
2019-03-08T00:15:26.062Z,2
2019-03-08T00:20:48.779Z,2.2
2019-03-08T00:26:11.421Z,1.9
2019-03-08T00:31:34.012Z,2.1
2019-03-08T00:36:56.765Z,2.3
2019-03-08T00:42:19.409Z,2
2019-03-08T00:47:43.611Z,2.3
2019-03-08T00:53:05.730Z,2.7
2019-03-08T00:58:28.772Z,2.4
2019-03-08T01:03:51.661Z,2.7
2019-03-08T01:09:14.267Z,2.4
2019-03-08T01:14:36.871Z,2.7
2019-03-08T01:19:59.498Z,2.9
2019-03-08T01:25:22.136Z,3.1
2019-03-08T01:30:45.135Z,3.1
2019-03-08T01:36:07.987Z,3.1
2019-03-08T01:41:30.561Z,4.1
2019-03-08T01:46:53.362Z,3.6
2019-03-08T01:52:16.115Z,4
2019-03-08T01:57:39.719Z,3.4
2019-03-08T02:03:02.442Z,3
2019-03-08T02:08:27.054Z,2.7
2019-03-08T02:13:49.976Z,2.5
2019-03-08T02:19:13.407Z,2.4
2019-03-08T02:24:36.041Z,1.8
2019-03-08T02:29:58.695Z,2.1
2019-03-08T02:35:21.396Z,2.1
2019-03-08T02:40:44.068Z,2.7
2019-03-08T02:46:07.601Z,2.7
2019-03-08T02:51:30.558Z,3.1
2019-03-08T02:56:53.215Z,3.4
2019-03-08T03:02:16.815Z,3.8
2019-03-08T03:07:39.539Z,4.4
2019-03-08T03:13:02.223Z,4.5
2019-03-08T03:18:25.143Z,4.2
2019-03-08T03:23:47.910Z,4.1
2019-03-08T03:29:19.455Z,3.9
2019-03-08T03:34:42.430Z,3.3
2019-03-08T03:40:05.378Z,3.2
2019-03-08T03:45:28.205Z,2.6
2019-03-08T03:50:50.862Z,2.6
2019-03-08T03:56:13.701Z,2.4
2019-03-08T04:01:36.349Z,2.1
2019-03-08T04:06:59.249Z,2.6
2019-03-08T04:12:23.104Z,2.3
2019-03-08T04:17:44.820Z,2.9
2019-03-08T04:23:07.543Z,3.5
2019-03-08T04:28:31.255Z,2.9
2019-03-08T04:33:55.067Z,3
2019-03-08T04:39:17.935Z,3.2
2019-03-08T04:44:40.708Z,3.4
2019-03-08T04:50:03.464Z,2.7
2019-03-08T04:55:26.071Z,2.6
2019-03-08T05:00:48.707Z,2.5
2019-03-08T05:06:11.458Z,3
2019-03-08T05:11:35.001Z,3
2019-03-08T05:16:57.647Z,3.2
2019-03-08T05:22:20.272Z,2.8
2019-03-08T05:27:44.437Z,3.1
2019-03-08T05:33:07.085Z,2.9
2019-03-08T05:38:30.029Z,3.5
2019-03-08T05:43:52.766Z,3.2
2019-03-08T05:49:15.495Z,3.3
2019-03-08T05:54:38.411Z,3.2
2019-03-08T06:00:01.107Z,3.4
2019-03-08T06:05:23.854Z,4.3
2019-03-08T06:10:46.511Z,4.1
2019-03-08T06:16:09.442Z,3.8
2019-03-08T06:21:32.135Z,4.1
2019-03-08T06:26:54.783Z,3.6
2019-03-08T06:32:17.466Z,4
2019-03-08T06:37:40.182Z,3.9
2019-03-08T06:43:02.834Z,4
2019-03-08T06:48:25.547Z,3.2
2019-03-08T06:53:48.210Z,3.9
2019-03-08T06:59:10.963Z,2.9
2019-03-08T07:04:33.691Z,4
2019-03-08T07:09:56.432Z,3.5
2019-03-08T07:15:19.102Z,3.3
2019-03-08T07:20:41.880Z,2.9
2019-03-08T07:26:04.638Z,3.1
2019-03-08T07:31:27.588Z,3.6
2019-03-08T07:36:50.429Z,3.7
2019-03-08T07:42:17.387Z,4.9
2019-03-08T07:48:15.221Z,3.5
2019-03-08T07:53:38.021Z,3.4
2019-03-08T07:59:00.980Z,4.3
2019-03-08T08:04:25.100Z,5
2019-03-08T08:09:47.964Z,5.2
2019-03-08T08:15:10.796Z,6.5
2019-03-08T08:20:33.553Z,4.7
2019-03-08T08:25:56.382Z,4.4
2019-03-08T08:31:19.118Z,5
2019-03-08T08:36:41.891Z,4.5
2019-03-08T08:42:04.545Z,3.6
2019-03-08T08:47:27.319Z,3
2019-03-08T08:52:50.089Z,3
2019-03-08T08:58:12.766Z,3.4
2019-03-08T09:03:35.445Z,3.4
2019-03-08T09:08:58.169Z,2.9
2019-03-08T09:14:20.933Z,3.6
2019-03-08T09:19:43.556Z,3.7
2019-03-08T09:25:06.187Z,4.9
2019-03-08T09:30:29.004Z,3.5
2019-03-08T09:35:51.721Z,4.4
2019-03-08T09:41:14.417Z,3.8
2019-03-08T09:46:37.038Z,3.7
2019-03-08T09:51:59.875Z,3.8
2019-03-08T09:57:22.646Z,3.9
2019-03-08T10:02:45.378Z,3.4
2019-03-08T10:08:08.027Z,4.6
2019-03-08T10:13:31.009Z,3.9
2019-03-08T10:18:53.925Z,4
2019-03-08T10:24:16.589Z,2.5
2019-03-08T10:29:39.421Z,2.3
2019-03-08T10:35:03.305Z,3
2019-03-08T10:40:26.752Z,3.3
2019-03-08T10:45:49.838Z,3
2019-03-08T10:51:12.552Z,3.2
2019-03-08T10:56:35.481Z,4.1
2019-03-08T11:01:58.121Z,4.2
2019-03-08T11:07:20.839Z,3.8
2019-03-08T11:12:43.525Z,3.1
2019-03-08T11:18:06.268Z,3.5
2019-03-08T11:23:29.040Z,2.7
2019-03-08T11:28:52.531Z,2.8
2019-03-08T11:34:15.256Z,3.7
2019-03-08T11:39:38.029Z,3.1
2019-03-08T11:45:00.805Z,2.9
2019-03-08T11:50:23.539Z,2.7
2019-03-08T11:55:46.182Z,2.8
2019-03-08T12:01:08.852Z,3.4
2019-03-08T12:06:31.594Z,3.4
2019-03-08T12:11:54.259Z,2.9
2019-03-08T12:17:17.293Z,2.5
2019-03-08T12:22:40.005Z,2.2
2019-03-08T12:28:02.713Z,2.3
2019-03-08T12:33:26.260Z,2.4
2019-03-08T12:38:48.977Z,2.7
2019-03-08T12:44:10.797Z,3.1
2019-03-08T12:49:33.689Z,2.8
2019-03-08T12:54:56.460Z,2.6
2019-03-08T13:00:19.914Z,3.1
2019-03-08T13:05:42.010Z,3
2019-03-08T13:11:04.641Z,2.9
2019-03-08T13:16:27.337Z,2.8
2019-03-08T13:21:50.010Z,2.9
2019-03-08T13:27:12.852Z,3.1
2019-03-08T13:32:35.153Z,2.7
2019-03-08T13:37:58.162Z,3
2019-03-08T13:43:21.124Z,2.8
2019-03-08T13:48:43.831Z,2.7
2019-03-08T13:54:06.552Z,3.1
2019-03-08T13:59:29.272Z,2.4
2019-03-08T14:04:52.031Z,2.8
2019-03-08T14:10:15.493Z,2.2
2019-03-08T14:15:38.193Z,2.5
2019-03-08T14:21:00.860Z,2.3
2019-03-08T14:26:23.852Z,2.7
2019-03-08T14:31:49.206Z,2.4
2019-03-08T14:37:10.075Z,1.9
2019-03-08T14:42:32.800Z,2
2019-03-08T14:47:55.423Z,2.2
2019-03-08T14:53:18.237Z,2.1
2019-03-08T14:58:40.883Z,1.8
2019-03-08T15:04:03.572Z,2
2019-03-08T15:09:28.976Z,2.2
2019-03-08T15:14:50.745Z,2.3
2019-03-08T15:20:15.228Z,2.2
2019-03-08T15:25:36.968Z,2.2
2019-03-08T15:30:58.591Z,2.5
2019-03-08T15:36:22.089Z,2.1
2019-03-08T15:41:44.954Z,2.1
2019-03-08T15:47:12.217Z,2
2019-03-08T15:52:31.257Z,2
2019-03-08T15:57:53.895Z,2
2019-03-08T16:03:16.853Z,2
2019-03-08T16:08:40.703Z,2.4
2019-03-08T16:14:08.657Z,2
2019-03-08T16:19:27.223Z,2.3
2019-03-08T16:24:49.953Z,2.3
2019-03-08T16:30:12.688Z,2.2
2019-03-08T16:35:35.332Z,2.2
2019-03-08T16:40:58.116Z,2.5
2019-03-08T16:46:21.749Z,2.4
2019-03-08T16:51:44.727Z,2.5
2019-03-08T16:57:07.401Z,2.6
2019-03-08T17:02:30.166Z,3.3
2019-03-08T17:07:53.090Z,2.7
2019-03-08T17:13:15.756Z,3.1
2019-03-08T17:18:38.401Z,6.4
2019-03-08T17:24:01.390Z,3.9
2019-03-08T17:29:24.047Z,3
2019-03-08T17:34:47.093Z,2.9
2019-03-08T17:40:09.761Z,2.7
2019-03-08T17:45:33.333Z,3.4
2019-03-08T17:50:56.033Z,3.5
2019-03-08T17:56:18.754Z,3.2
2019-03-08T18:01:46.034Z,4.7
2019-03-08T18:07:08.892Z,3.4
2019-03-08T18:12:31.590Z,3.3
2019-03-08T18:17:54.619Z,2.5
2019-03-08T18:23:17.312Z,2.6
2019-03-08T18:28:40.396Z,2.4
2019-03-08T18:34:02.587Z,2.8
2019-03-08T18:39:25.929Z,2.5
2019-03-08T18:44:48.635Z,3
2019-03-08T18:50:11.662Z,3.6
2019-03-08T18:55:34.923Z,3.3
2019-03-08T19:00:58.028Z,3.6
2019-03-08T19:06:20.919Z,3
2019-03-08T19:11:43.637Z,4.1
2019-03-08T19:17:06.449Z,3.9
2019-03-08T19:22:29.220Z,4.7
2019-03-08T19:27:52.205Z,4.2
2019-03-08T19:33:15.904Z,4.6
2019-03-08T19:38:38.794Z,6.4
2019-03-08T19:44:06.887Z,7.3
2019-03-08T19:49:31.052Z,7.3
2019-03-08T19:54:53.949Z,7.7
2019-03-08T20:00:16.722Z,6.1
2019-03-08T20:05:39.642Z,6.3
2019-03-08T20:11:01.560Z,5.5
2019-03-08T20:16:24.597Z,4.2
2019-03-08T20:21:47.846Z,4.5
2019-03-08T20:27:09.924Z,4.5
2019-03-08T20:32:32.748Z,5.4
2019-03-08T20:37:55.576Z,5.7
2019-03-08T20:43:18.947Z,6.2
2019-03-08T20:48:42.174Z,6.8
2019-03-08T20:54:05.394Z,6.9
2019-03-08T20:59:28.596Z,6.1
2019-03-08T21:04:51.409Z,6.4
2019-03-08T21:10:14.540Z,6.7
2019-03-08T21:15:37.590Z,6.7
2019-03-08T21:20:59.704Z,6.7
2019-03-08T21:26:22.727Z,6.8
2019-03-08T21:31:45.932Z,7.2
2019-03-08T21:37:08.992Z,7.1
2019-03-08T21:42:30.939Z,7.1
2019-03-08T21:47:53.640Z,8
2019-03-08T21:53:16.465Z,8.1
2019-03-08T21:58:39.113Z,8.4
2019-03-08T22:04:01.976Z,8.4
2019-03-08T22:09:24.663Z,8.6
2019-03-08T22:14:47.368Z,9.4
2019-03-08T22:20:10.026Z,9.4
2019-03-08T22:25:33.363Z,9
2019-03-08T22:30:56.200Z,8.4
2019-03-08T22:36:19.736Z,8.4
2019-03-08T22:41:42.505Z,7.8
2019-03-08T22:47:05.244Z,7.6
2019-03-08T22:52:27.970Z,6.8
2019-03-08T22:57:52.482Z,7.1
2019-03-08T23:03:15.095Z,7.1
2019-03-08T23:08:37.793Z,7
2019-03-08T23:14:02.150Z,7
2019-03-08T23:19:24.788Z,7.5
2019-03-08T23:24:48.797Z,7.8
2019-03-08T23:30:11.969Z,7.4
2019-03-08T23:35:33.639Z,7.8
2019-03-08T23:41:05.843Z,6.8
2019-03-08T23:46:37.431Z,7.4
2019-03-08T23:52:00.147Z,8.6
2019-03-08T23:57:22.988Z,9
